createdAt,value
2023-12-09T00:00:41.988Z,34
2023-12-09T00:02:41.985Z,33
2023-12-09T00:04:41.962Z,39
2023-12-09T00:06:46.268Z,36
2023-12-09T00:08:41.934Z,36
2023-12-09T00:10:41.957Z,36
2023-12-09T00:12:42.048Z,33
2023-12-09T00:14:41.971Z,33
2023-12-09T00:16:42.112Z,36
2023-12-09T00:18:42.077Z,34
2023-12-09T00:20:41.958Z,33
2023-12-09T00:22:42.117Z,36
2023-12-09T00:24:41.920Z,39
2023-12-09T00:26:41.969Z,36
2023-12-09T00:28:41.943Z,36
2023-12-09T00:30:41.993Z,25
2023-12-09T00:32:42.005Z,30
2023-12-09T00:34:41.997Z,36
2023-12-09T00:36:41.944Z,39
2023-12-09T00:38:41.914Z,36
2023-12-09T00:40:41.947Z,33
2023-12-09T00:42:42.041Z,36
2023-12-09T00:44:41.968Z,33
2023-12-09T00:46:41.909Z,37
2023-12-09T00:48:42.060Z,36
2023-12-09T00:50:41.906Z,39
2023-12-09T00:52:41.941Z,33
2023-12-09T00:54:41.980Z,36
2023-12-09T00:56:41.926Z,34
2023-12-09T00:58:41.882Z,34
2023-12-09T01:00:42.076Z,36
2023-12-09T01:02:41.937Z,40
2023-12-09T01:04:42.055Z,33
2023-12-09T01:06:41.883Z,39
2023-12-09T01:08:41.886Z,36
2023-12-09T01:10:41.889Z,36
2023-12-09T01:12:42.020Z,36
2023-12-09T01:14:41.968Z,37
2023-12-09T01:16:41.904Z,36
2023-12-09T01:18:41.929Z,39
2023-12-09T01:20:41.909Z,36
2023-12-09T01:22:41.983Z,34
2023-12-09T01:24:41.937Z,36
2023-12-09T01:26:41.873Z,36
2023-12-09T01:28:41.986Z,33
2023-12-09T01:30:41.891Z,36
2023-12-09T01:32:42.093Z,37
2023-12-09T01:34:42.120Z,36
2023-12-09T01:36:41.878Z,36
2023-12-09T01:38:41.895Z,36
2023-12-09T01:40:41.922Z,37
2023-12-09T01:42:42.153Z,37
2023-12-09T01:44:41.923Z,34
2023-12-09T01:46:42.196Z,40
2023-12-09T01:48:42.141Z,33
2023-12-09T01:50:41.972Z,34
2023-12-09T01:52:42.133Z,36
2023-12-09T01:54:41.916Z,33
2023-12-09T01:56:41.968Z,39
2023-12-09T01:58:42.113Z,39
2023-12-09T02:01:59.235Z,38
2023-12-09T02:03:31.944Z,37
2023-12-09T02:05:31.660Z,37
2023-12-09T02:07:31.528Z,39
2023-12-09T02:09:31.579Z,36
2023-12-09T02:11:36.603Z,40
2023-12-09T02:13:37.425Z,36
2023-12-09T02:15:35.021Z,36
2023-12-09T02:17:33.053Z,34
2023-12-09T02:19:32.265Z,39
2023-12-09T02:21:41.582Z,37
2023-12-09T02:24:06.863Z,33
2023-12-09T02:26:11.367Z,36
2023-12-09T02:28:08.593Z,37
2023-12-09T02:30:14.633Z,37
2023-12-09T02:32:08.428Z,39
2023-12-09T02:34:07.283Z,34
2023-12-09T02:36:08.948Z,39
2023-12-09T02:38:07.128Z,37
2023-12-09T02:40:07.768Z,37
2023-12-09T02:42:07.179Z,33
2023-12-09T02:44:06.898Z,37
2023-12-09T02:46:06.681Z,36
2023-12-09T02:48:06.953Z,36
2023-12-09T02:50:32.006Z,39
2023-12-09T02:51:41.957Z,37
2023-12-09T02:53:41.946Z,40
2023-12-09T02:55:42.057Z,34
2023-12-09T02:57:41.964Z,36
2023-12-09T02:59:42.090Z,36
2023-12-09T03:01:42.045Z,39
2023-12-09T03:03:42.009Z,40
2023-12-09T03:05:42.037Z,36
2023-12-09T03:07:41.938Z,37
2023-12-09T03:09:41.959Z,40
2023-12-09T03:11:41.904Z,36
2023-12-09T03:13:41.922Z,34
2023-12-09T03:15:42.062Z,33
2023-12-09T03:17:41.978Z,37
2023-12-09T03:19:42.094Z,36
2023-12-09T03:21:41.917Z,36
2023-12-09T03:23:41.909Z,39
2023-12-09T03:25:42.025Z,33
2023-12-09T03:27:41.875Z,39
2023-12-09T03:29:41.931Z,37
2023-12-09T03:31:44.453Z,40
2023-12-09T03:33:42.208Z,36
2023-12-09T03:35:42.694Z,39
2023-12-09T03:37:41.986Z,36
2023-12-09T03:39:41.946Z,39
2023-12-09T03:41:41.865Z,33
2023-12-09T03:43:41.952Z,39
2023-12-09T03:45:42.067Z,34
2023-12-09T03:47:41.921Z,37
2023-12-09T03:49:42.010Z,39
2023-12-09T03:51:41.875Z,36
2023-12-09T03:53:41.896Z,36
2023-12-09T03:55:41.941Z,37
2023-12-09T03:57:41.893Z,33
2023-12-09T03:59:43.737Z,36
2023-12-09T04:01:46.191Z,37
2023-12-09T04:03:42.009Z,39
2023-12-09T04:05:41.914Z,40
2023-12-09T04:07:41.891Z,36
2023-12-09T04:09:41.859Z,34
2023-12-09T04:11:41.918Z,34
2023-12-09T04:13:41.859Z,36
2023-12-09T04:15:41.962Z,40
2023-12-09T04:17:41.910Z,36
2023-12-09T04:19:42.043Z,37
2023-12-09T04:21:41.891Z,36
2023-12-09T04:23:41.838Z,37
2023-12-09T04:25:41.865Z,33
2023-12-09T04:27:41.896Z,40
2023-12-09T04:29:41.889Z,39
2023-12-09T04:31:41.897Z,34
2023-12-09T04:33:42.052Z,37
2023-12-09T04:35:41.940Z,39
2023-12-09T04:37:41.862Z,42
2023-12-09T04:39:41.926Z,40
2023-12-09T04:41:42.399Z,37
2023-12-09T04:43:41.854Z,19
2023-12-09T04:45:41.920Z,40
2023-12-09T04:47:41.914Z,40
2023-12-09T04:49:42.097Z,36
2023-12-09T04:51:41.890Z,36
2023-12-09T04:53:41.886Z,37
2023-12-09T04:55:42.481Z,42
2023-12-09T04:57:41.936Z,37
2023-12-09T04:59:41.884Z,39
2023-12-09T05:01:41.919Z,40
2023-12-09T05:03:41.977Z,40
2023-12-09T05:04:39.570Z,39
2023-12-09T05:05:55.851Z,36
2023-12-09T05:07:55.721Z,40
2023-12-09T05:09:55.765Z,36
2023-12-09T05:11:55.829Z,42
2023-12-09T05:13:55.704Z,40
2023-12-09T05:15:55.751Z,39
2023-12-09T05:17:55.795Z,42
2023-12-09T05:19:55.743Z,33
2023-12-09T05:21:55.718Z,39
2023-12-09T05:23:55.808Z,40
2023-12-09T05:25:55.751Z,39
2023-12-09T05:27:55.710Z,39
2023-12-09T05:29:55.818Z,36
2023-12-09T05:31:55.747Z,39
2023-12-09T05:33:55.970Z,37
2023-12-09T05:35:55.782Z,37
2023-12-09T05:37:55.734Z,36
2023-12-09T05:39:55.720Z,36
2023-12-09T05:41:55.718Z,33
2023-12-09T05:43:55.694Z,37
2023-12-09T05:45:55.762Z,34
2023-12-09T05:47:57.014Z,37
2023-12-09T05:49:55.784Z,36
2023-12-09T05:51:55.679Z,34
2023-12-09T05:53:55.724Z,33
2023-12-09T05:55:55.690Z,33
2023-12-09T05:57:55.661Z,34
2023-12-09T05:59:55.764Z,33
2023-12-09T06:01:55.733Z,36
2023-12-09T06:03:55.738Z,31
2023-12-09T06:05:55.856Z,33
2023-12-09T06:07:55.685Z,33
2023-12-09T06:09:55.805Z,34
2023-12-09T06:11:56.176Z,33
2023-12-09T06:13:56.563Z,34
2023-12-09T06:15:55.991Z,34
2023-12-09T06:17:55.815Z,34
2023-12-09T06:19:55.775Z,34
2023-12-09T06:21:55.777Z,34
2023-12-09T06:23:55.831Z,34
2023-12-09T06:25:55.652Z,33
2023-12-09T06:27:55.643Z,34
2023-12-09T06:31:45.472Z,37
2023-12-09T06:33:45.517Z,39
2023-12-09T06:35:45.487Z,36
2023-12-09T06:37:45.504Z,37
2023-12-09T06:39:45.555Z,36
2023-12-09T06:41:45.430Z,39
2023-12-09T06:43:45.497Z,37
2023-12-09T06:45:45.464Z,39
2023-12-09T06:47:45.636Z,37
2023-12-09T06:49:45.579Z,40
2023-12-09T06:51:45.461Z,43
2023-12-09T06:53:45.448Z,40
2023-12-09T06:55:45.455Z,43
2023-12-09T06:57:45.430Z,46
2023-12-09T06:59:45.747Z,49
2023-12-09T07:01:45.452Z,45
2023-12-09T07:03:45.502Z,49
2023-12-09T07:05:45.416Z,46
2023-12-09T07:07:45.432Z,45
2023-12-09T07:09:45.495Z,42
2023-12-09T07:11:45.382Z,40
2023-12-09T07:13:45.466Z,43
2023-12-09T07:15:45.461Z,46
2023-12-09T07:17:45.450Z,46
2023-12-09T07:19:45.505Z,45
2023-12-09T07:21:45.453Z,42
2023-12-09T07:23:45.453Z,43
2023-12-09T07:25:45.480Z,46
2023-12-09T07:27:45.383Z,42
2023-12-09T07:29:45.455Z,40
2023-12-09T07:31:45.434Z,45
2023-12-09T07:33:45.662Z,40
2023-12-09T07:35:45.370Z,24
2023-12-09T07:37:47.843Z,42
2023-12-09T07:39:45.408Z,42
2023-12-09T07:41:45.484Z,39
2023-12-09T07:43:45.400Z,42
2023-12-09T07:45:45.441Z,45
2023-12-09T07:47:45.383Z,43
2023-12-09T07:49:45.504Z,40
2023-12-09T07:51:45.469Z,34
2023-12-09T07:53:45.389Z,39
2023-12-09T07:55:45.390Z,37
2023-12-09T07:57:45.439Z,34
2023-12-09T07:59:45.391Z,42
2023-12-09T08:01:45.412Z,40
2023-12-09T08:03:45.536Z,38
2023-12-09T08:05:47.554Z,40
2023-12-09T08:07:45.380Z,36
2023-12-09T08:09:45.384Z,42
2023-12-09T08:11:45.354Z,38
2023-12-09T08:13:47.149Z,37
2023-12-09T08:15:45.447Z,36
2023-12-09T08:17:45.518Z,37
2023-12-09T08:19:45.424Z,33
2023-12-09T08:21:45.415Z,36
2023-12-09T08:23:45.393Z,36
2023-12-09T08:25:45.536Z,30
2023-12-09T08:27:45.390Z,33
2023-12-09T08:29:45.473Z,37
2023-12-09T08:31:45.324Z,40
2023-12-09T08:33:45.508Z,36
2023-12-09T08:35:46.180Z,34
2023-12-09T08:37:45.964Z,33
2023-12-09T08:39:46.091Z,34
2023-12-09T08:41:46.037Z,34
2023-12-09T08:43:46.340Z,36
2023-12-09T08:45:45.711Z,37
2023-12-09T08:47:46.359Z,38
2023-12-09T08:49:46.222Z,39
2023-12-09T08:51:48.983Z,36
2023-12-09T08:53:45.435Z,40
2023-12-09T08:55:45.337Z,39
2023-12-09T08:57:45.421Z,42
2023-12-09T08:59:45.393Z,36
2023-12-09T09:01:45.400Z,39
2023-12-09T09:03:45.537Z,39
2023-12-09T09:05:45.444Z,22
2023-12-09T09:07:48.002Z,42
2023-12-09T09:09:45.362Z,41
2023-12-09T09:11:45.384Z,41
2023-12-09T09:13:45.385Z,40
2023-12-09T09:15:45.409Z,42
2023-12-09T09:17:45.374Z,43
2023-12-09T09:19:45.413Z,43
2023-12-09T09:21:45.324Z,44
2023-12-09T09:23:45.469Z,42
2023-12-09T09:25:45.543Z,46
2023-12-09T09:27:45.498Z,44
2023-12-09T09:29:45.298Z,40
2023-12-09T09:31:45.326Z,40
2023-12-09T09:33:46.166Z,33
2023-12-09T09:35:45.292Z,40
2023-12-09T09:37:45.317Z,37
2023-12-09T09:39:45.409Z,41
2023-12-09T09:41:51.247Z,39
2023-12-09T09:43:48.409Z,37
2023-12-09T09:45:46.105Z,39
2023-12-09T09:47:48.586Z,37
2023-12-09T09:49:46.532Z,39
2023-12-09T09:51:47.632Z,40
2023-12-09T09:53:49.728Z,40
2023-12-09T10:04:12.106Z,35
2023-12-09T10:06:12.450Z,31
2023-12-09T10:08:12.030Z,34
2023-12-09T10:10:12.785Z,37
2023-12-09T10:12:12.045Z,35
2023-12-09T10:14:12.035Z,37
2023-12-09T10:16:12.085Z,37
2023-12-09T10:18:13.041Z,37
2023-12-09T10:20:12.420Z,36
2023-12-09T10:22:12.034Z,38
2023-12-09T10:24:12.106Z,36
2023-12-09T10:26:12.716Z,28
2023-12-09T10:28:12.088Z,35
2023-12-09T10:30:12.670Z,36
2023-12-09T10:32:12.154Z,32
2023-12-09T10:34:15.316Z,38
2023-12-09T10:36:12.241Z,38
2023-12-09T10:38:11.956Z,36
2023-12-09T10:40:12.573Z,36
2023-12-09T10:42:12.170Z,37
2023-12-09T10:44:12.161Z,36
2023-12-09T10:46:12.565Z,32
2023-12-09T10:48:12.241Z,36
2023-12-09T10:50:12.166Z,36
2023-12-09T10:52:12.102Z,34
2023-12-09T10:54:12.024Z,39
2023-12-09T10:56:12.443Z,38
2023-12-09T10:58:12.928Z,37
2023-12-09T11:00:12.714Z,33
2023-12-09T11:02:12.593Z,39
2023-12-09T11:04:12.403Z,34
2023-12-09T11:06:13.295Z,32
2023-12-09T11:08:13.361Z,35
2023-12-09T11:10:12.246Z,38
2023-12-09T11:12:22.328Z,36
2023-12-09T11:14:12.007Z,35
2023-12-09T11:16:17.142Z,35
2023-12-09T11:18:12.948Z,36
2023-12-09T11:20:12.948Z,35
2023-12-09T11:22:13.634Z,35
2023-12-09T11:24:12.326Z,34
2023-12-09T11:26:13.733Z,34
2023-12-09T11:28:12.077Z,36
2023-12-09T11:30:22.546Z,33
2023-12-09T11:32:13.857Z,34
2023-12-09T11:34:12.658Z,39
2023-12-09T11:36:12.311Z,34
2023-12-09T11:38:12.712Z,32
2023-12-09T11:40:12.860Z,34
2023-12-09T11:42:12.106Z,38
2023-12-09T11:44:12.397Z,36
2023-12-09T11:46:12.241Z,36
2023-12-09T11:48:12.650Z,40
2023-12-09T11:50:12.083Z,39
2023-12-09T11:52:12.069Z,34
2023-12-09T11:54:12.361Z,37
2023-12-09T12:06:21.086Z,32
2023-12-09T12:08:20.867Z,33
2023-12-09T12:10:20.451Z,35
2023-12-09T12:12:20.567Z,31
2023-12-09T12:14:20.565Z,30
2023-12-09T12:16:20.941Z,33
2023-12-09T12:18:20.655Z,35
2023-12-09T12:20:20.618Z,36
2023-12-09T12:22:20.641Z,36
2023-12-09T12:24:20.692Z,33
2023-12-09T12:26:20.654Z,36
2023-12-09T12:28:20.502Z,30
2023-12-09T12:30:20.675Z,34
2023-12-09T12:32:20.628Z,33
2023-12-09T12:34:20.984Z,33
2023-12-09T12:36:20.716Z,34
2023-12-09T12:38:21.349Z,30
2023-12-09T12:40:20.565Z,31
2023-12-09T12:42:20.624Z,34
2023-12-09T12:44:21.597Z,34
2023-12-09T12:46:20.488Z,28
2023-12-09T12:48:20.791Z,34
2023-12-09T12:50:20.616Z,34
2023-12-09T12:52:20.574Z,32
2023-12-09T12:54:20.627Z,33
2023-12-09T12:56:20.582Z,33
2023-12-09T12:58:20.582Z,34
2023-12-09T13:00:20.881Z,32
2023-12-09T13:02:20.595Z,33
2023-12-09T13:04:20.638Z,29
2023-12-09T13:06:20.556Z,32
2023-12-09T13:08:20.457Z,31
2023-12-09T13:10:20.658Z,33
2023-12-09T13:12:20.658Z,35
2023-12-09T13:14:20.671Z,34
2023-12-09T13:16:20.584Z,39
2023-12-09T13:18:22.830Z,38
2023-12-09T13:20:22.933Z,36
2023-12-09T13:22:20.478Z,39
2023-12-09T13:24:20.593Z,39
2023-12-09T13:26:20.769Z,37
2023-12-09T13:28:20.410Z,16
2023-12-09T13:30:20.635Z,35
2023-12-09T13:32:20.492Z,40
2023-12-09T13:34:20.570Z,39
2023-12-09T13:36:20.588Z,36
2023-12-09T13:38:20.548Z,39
2023-12-09T13:40:20.714Z,33
2023-12-09T13:42:20.515Z,37
2023-12-09T13:44:20.504Z,40
2023-12-09T13:46:20.588Z,32
2023-12-09T13:50:22.024Z,39
2023-12-09T13:52:22.067Z,38
2023-12-09T13:54:22.098Z,38
2023-12-09T13:56:22.024Z,39
2023-12-09T13:58:22.097Z,36
2023-12-09T14:00:22.324Z,37
2023-12-09T14:02:22.305Z,37
2023-12-09T14:04:22.463Z,38
2023-12-09T14:06:22.232Z,34
2023-12-09T14:08:22.097Z,33
2023-12-09T14:10:22.114Z,35
2023-12-09T14:12:22.138Z,34
2023-12-09T14:14:22.056Z,32
2023-12-09T14:16:22.212Z,34
2023-12-09T14:18:22.138Z,33
2023-12-09T14:20:22.113Z,34
2023-12-09T14:22:22.113Z,33
2023-12-09T14:24:22.215Z,34
2023-12-09T14:26:22.145Z,32
2023-12-09T14:28:22.150Z,34
2023-12-09T14:32:40.338Z,35
2023-12-09T14:34:40.425Z,30
2023-12-09T14:36:40.259Z,32
2023-12-09T14:38:40.240Z,33
2023-12-09T14:40:40.313Z,29
2023-12-09T14:42:40.308Z,32
2023-12-09T14:44:40.233Z,31
2023-12-09T14:46:40.237Z,29
2023-12-09T14:48:40.533Z,31
2023-12-09T14:50:40.260Z,32
2023-12-09T14:52:37.231Z,33
2023-12-09T14:54:21.841Z,31
2023-12-09T14:56:22.001Z,28
2023-12-09T14:58:21.777Z,31
2023-12-09T15:00:22.014Z,27
2023-12-09T15:04:22.748Z,30
2023-12-09T15:06:22.362Z,30
2023-12-09T15:08:22.335Z,30
2023-12-09T15:10:22.330Z,30
2023-12-09T15:12:22.339Z,31
2023-12-09T15:14:22.357Z,29
2023-12-09T15:16:22.601Z,29
2023-12-09T15:18:22.446Z,28
2023-12-09T15:20:22.424Z,29
2023-12-09T15:22:22.269Z,27
2023-12-09T15:24:22.313Z,31
2023-12-09T15:26:22.541Z,30
2023-12-09T15:28:22.367Z,28
2023-12-09T15:30:22.511Z,27
2023-12-09T15:32:22.326Z,28
2023-12-09T15:34:22.382Z,28
2023-12-09T15:36:22.642Z,28
2023-12-09T15:38:22.345Z,30
2023-12-09T15:40:22.378Z,27
2023-12-09T15:42:22.271Z,27
2023-12-09T15:44:22.311Z,30
2023-12-09T15:46:22.357Z,28
2023-12-09T15:48:23.275Z,30
2023-12-09T15:50:22.397Z,28
2023-12-09T15:52:22.271Z,25
2023-12-09T15:54:22.364Z,33
2023-12-09T15:56:22.368Z,28
2023-12-09T15:58:22.346Z,30
2023-12-09T16:00:22.345Z,6
2023-12-09T16:02:22.485Z,22
2023-12-09T16:04:25.323Z,26
2023-12-09T16:06:22.497Z,30
2023-12-09T16:08:22.661Z,30
2023-12-09T16:10:22.588Z,23
2023-12-09T16:12:23.834Z,13
2023-12-09T16:14:22.267Z,28
2023-12-09T16:16:22.338Z,25
2023-12-09T16:18:22.443Z,28
2023-12-09T16:20:22.274Z,28
2023-12-09T16:22:22.268Z,27
2023-12-09T16:24:22.309Z,25
2023-12-09T16:26:22.538Z,28
2023-12-09T16:28:22.356Z,27
2023-12-09T16:30:22.495Z,28
2023-12-09T16:32:25.242Z,22
2023-12-09T16:34:58.504Z,26
2023-12-09T16:36:58.502Z,28
2023-12-09T16:38:58.482Z,24
2023-12-09T16:42:03.310Z,27
2023-12-09T16:43:11.354Z,29
2023-12-09T16:45:11.818Z,31
2023-12-09T16:47:11.331Z,29
2023-12-09T16:49:11.352Z,30
2023-12-09T16:51:11.266Z,33
2023-12-09T16:53:11.792Z,30
2023-12-09T16:55:12.069Z,33
2023-12-09T16:57:12.332Z,34
2023-12-09T16:59:11.783Z,33
2023-12-09T17:03:11.477Z,30
2023-12-09T17:05:11.485Z,30
2023-12-09T17:07:11.309Z,30
2023-12-09T17:09:11.213Z,27
2023-12-09T17:13:33.107Z,25
2023-12-09T17:15:33.076Z,27
2023-12-09T17:17:33.177Z,30
2023-12-09T17:19:33.242Z,24
2023-12-09T17:21:33.175Z,30
2023-12-09T17:23:33.088Z,28
2023-12-09T17:25:33.466Z,29
2023-12-09T17:27:33.370Z,27
2023-12-09T17:29:33.099Z,30
2023-12-09T17:31:33.087Z,31
2023-12-09T17:33:33.271Z,10
2023-12-09T17:36:19.799Z,26
2023-12-09T17:38:01.174Z,30
2023-12-09T17:40:01.218Z,30
2023-12-09T17:42:01.287Z,32
2023-12-09T17:44:01.644Z,33
2023-12-09T17:46:02.514Z,28
2023-12-09T17:48:01.201Z,31
2023-12-09T17:50:01.331Z,27
2023-12-09T17:52:01.223Z,29
2023-12-09T17:54:01.479Z,30
2023-12-09T17:56:01.225Z,30
2023-12-09T17:58:01.197Z,31
2023-12-09T18:00:01.184Z,31
2023-12-09T18:02:01.173Z,28
2023-12-09T18:04:01.403Z,25
2023-12-09T18:06:01.192Z,25
2023-12-09T18:08:01.148Z,24
2023-12-09T18:10:01.178Z,25
2023-12-09T18:12:01.201Z,23
2023-12-09T18:14:01.221Z,24
2023-12-09T18:16:01.338Z,22
2023-12-09T18:18:01.304Z,16
2023-12-09T18:20:01.227Z,24
2023-12-09T18:22:01.081Z,21
2023-12-09T18:24:01.354Z,28
2023-12-09T18:26:01.150Z,27
2023-12-09T18:28:01.244Z,30
2023-12-09T18:30:01.152Z,24
2023-12-09T18:32:01.173Z,25
2023-12-09T18:34:01.336Z,27
2023-12-09T18:36:01.167Z,28
2023-12-09T18:38:01.216Z,30
2023-12-09T18:40:01.190Z,25
2023-12-09T18:42:01.169Z,19
2023-12-09T18:44:01.172Z,21
2023-12-09T18:46:01.248Z,22
2023-12-09T18:48:01.237Z,25
2023-12-09T18:50:01.267Z,21
2023-12-09T18:52:01.112Z,18
2023-12-09T18:54:01.477Z,24
2023-12-09T18:56:01.411Z,22
2023-12-09T18:58:01.168Z,13
2023-12-09T19:00:01.214Z,22
2023-12-09T19:02:09.088Z,25
2023-12-09T19:04:01.268Z,24
2023-12-09T19:06:01.336Z,26
2023-12-09T19:08:01.118Z,25
2023-12-09T19:10:04.047Z,21
2023-12-09T19:12:01.120Z,16
2023-12-09T19:14:01.122Z,19
2023-12-09T19:16:01.303Z,25
2023-12-09T19:18:01.119Z,24
2023-12-09T19:20:02.131Z,21
2023-12-09T19:22:01.221Z,24
2023-12-09T19:25:56.965Z,27
2023-12-09T19:27:56.960Z,22
2023-12-09T19:29:56.865Z,25
2023-12-09T19:31:56.884Z,24
2023-12-09T19:33:57.390Z,20
2023-12-09T19:35:56.840Z,24
2023-12-09T19:37:56.937Z,24
2023-12-09T19:39:56.874Z,24
2023-12-09T19:41:56.821Z,21
2023-12-09T19:43:56.827Z,21
2023-12-09T19:45:56.983Z,24
2023-12-09T19:47:56.892Z,21
2023-12-09T19:49:56.815Z,25
2023-12-09T19:51:56.756Z,21
2023-12-09T19:53:56.766Z,24
2023-12-09T19:55:56.759Z,22
2023-12-09T19:57:56.741Z,24
2023-12-09T19:59:56.782Z,24
2023-12-09T20:01:56.765Z,23
2023-12-09T20:03:56.909Z,15
2023-12-09T20:05:56.816Z,28
2023-12-09T20:07:56.769Z,27
2023-12-09T20:09:56.858Z,28
2023-12-09T20:11:56.770Z,21
2023-12-09T20:14:36.611Z,32
2023-12-09T20:16:33.789Z,30
2023-12-09T20:18:33.806Z,26
2023-12-09T20:20:33.765Z,25
2023-12-09T20:22:33.704Z,16
2023-12-09T20:24:33.789Z,25
2023-12-09T20:26:33.751Z,25
2023-12-09T20:28:33.674Z,25
2023-12-09T20:30:34.899Z,18
2023-12-09T20:32:33.930Z,24
2023-12-09T20:34:33.775Z,25
2023-12-09T20:36:33.755Z,22
2023-12-09T20:38:34.251Z,22
2023-12-09T20:40:33.693Z,23
2023-12-09T20:42:33.720Z,29
2023-12-09T20:44:33.771Z,22
2023-12-09T20:46:33.671Z,25
2023-12-09T20:48:33.750Z,22
2023-12-09T20:50:33.709Z,22
2023-12-09T20:52:33.646Z,21
2023-12-09T20:54:33.743Z,16
2023-12-09T20:56:33.701Z,21
2023-12-09T20:58:33.609Z,23
2023-12-09T21:00:33.840Z,22
2023-12-09T21:02:33.679Z,19
2023-12-09T21:04:33.689Z,22
2023-12-09T21:06:33.749Z,21
2023-12-09T21:08:33.684Z,27
2023-12-09T21:10:33.651Z,19
2023-12-09T21:12:34.061Z,21
2023-12-09T21:14:33.727Z,21
2023-12-09T21:16:34.015Z,22
2023-12-09T21:18:33.814Z,24
2023-12-09T21:20:33.653Z,24
2023-12-09T21:22:33.666Z,19
2023-12-09T21:24:33.783Z,22
2023-12-09T21:26:33.599Z,21
2023-12-09T21:28:33.653Z,23
2023-12-09T21:30:33.808Z,3
2023-12-09T21:32:33.744Z,24
2023-12-09T21:34:33.741Z,22
2023-12-09T21:36:33.853Z,24
2023-12-09T21:38:33.994Z,22
2023-12-09T21:40:33.645Z,25
2023-12-09T21:44:17.983Z,25
2023-12-09T21:46:18.042Z,21
2023-12-09T21:48:18.084Z,22
2023-12-09T21:51:02.313Z,28
2023-12-09T21:52:26.350Z,27
2023-12-09T21:54:26.027Z,27
2023-12-09T21:56:26.994Z,22
2023-12-09T21:58:26.025Z,22
2023-12-09T22:00:26.052Z,30
2023-12-09T22:02:26.051Z,27
2023-12-09T22:04:26.017Z,27
2023-12-09T22:06:26.011Z,30
2023-12-09T22:08:25.983Z,25
2023-12-09T22:10:26.017Z,27
2023-12-09T22:12:26.168Z,24
2023-12-09T22:14:25.980Z,27
2023-12-09T22:16:26.047Z,24
2023-12-09T22:18:26.110Z,19
2023-12-09T22:20:25.980Z,22
2023-12-09T22:22:27.928Z,28
2023-12-09T22:24:26.053Z,21
2023-12-09T22:26:26.009Z,23
2023-12-09T22:28:29.526Z,24
2023-12-09T22:30:26.089Z,25
2023-12-09T22:32:26.463Z,25
2023-12-09T22:34:26.099Z,25
2023-12-09T22:36:26.017Z,25
2023-12-09T22:38:25.949Z,21
2023-12-09T22:40:26.229Z,24
2023-12-09T22:42:26.236Z,27
2023-12-09T22:44:26.065Z,22
2023-12-09T22:46:29.777Z,24
2023-12-09T22:48:26.170Z,22
2023-12-09T22:50:25.941Z,19
2023-12-09T22:52:27.977Z,24
2023-12-09T22:54:26.020Z,25
2023-12-09T22:56:26.813Z,22
2023-12-09T22:58:25.986Z,22
2023-12-09T23:00:26.142Z,27
2023-12-09T23:02:26.262Z,24
2023-12-09T23:04:26.350Z,22
2023-12-09T23:06:26.245Z,25
2023-12-09T23:08:25.993Z,25
2023-12-09T23:10:26.077Z,21
2023-12-09T23:12:26.198Z,25
2023-12-09T23:14:25.929Z,24
2023-12-09T23:16:25.956Z,26
2023-12-09T23:18:26.199Z,22
2023-12-09T23:20:25.917Z,25
2023-12-09T23:22:26.179Z,19
2023-12-09T23:24:26.032Z,25
2023-12-09T23:26:25.922Z,18
2023-12-09T23:28:26.200Z,24
2023-12-09T23:30:26.040Z,24
2023-12-09T23:32:26.028Z,15
2023-12-09T23:34:26.040Z,26
2023-12-09T23:36:26.079Z,24
2023-12-09T23:38:25.987Z,25
2023-12-09T23:40:25.964Z,28
2023-12-09T23:42:26.181Z,22
2023-12-09T23:44:25.943Z,25
2023-12-09T23:46:25.966Z,24
2023-12-09T23:48:25.974Z,24
2023-12-09T23:50:26.013Z,24
2023-12-09T23:52:26.104Z,27
2023-12-09T23:54:25.965Z,22
2023-12-09T23:56:26.087Z,30
2023-12-09T23:58:25.929Z,28
